createdAt,value
2023-05-14T00:03:03.932Z,1003.62
2023-05-14T00:08:49.342Z,1003.63
2023-05-14T00:14:33.941Z,1003.55
2023-05-14T00:20:18.853Z,1003.51
2023-05-14T00:26:04.085Z,1003.47
2023-05-14T00:31:48.927Z,1003.44
2023-05-14T00:37:34.820Z,1003.43
2023-05-14T00:43:19.516Z,1003.41
2023-05-14T00:49:04.434Z,1003.34
2023-05-14T00:54:49.825Z,1003.34
2023-05-14T01:00:35.531Z,1003.34
2023-05-14T01:06:27.777Z,1003.35
2023-05-14T01:12:18.066Z,1003.36
2023-05-14T01:18:05.973Z,1003.32
2023-05-14T01:23:51.001Z,1003.34
2023-05-14T01:29:38.091Z,1003.36
2023-05-14T01:35:23.580Z,1003.34
2023-05-14T01:41:08.479Z,1003.23
2023-05-14T01:46:54.227Z,1003.24
2023-05-14T01:52:39.835Z,1003.3
2023-05-14T01:58:24.797Z,1003.24
2023-05-14T02:04:09.793Z,1003.19
2023-05-14T02:09:54.507Z,1003.13
2023-05-14T02:15:39.163Z,1003.15
2023-05-14T02:21:23.953Z,1003.18
2023-05-14T02:27:08.769Z,1003.16
2023-05-14T02:32:53.615Z,1003.13
2023-05-14T02:38:38.558Z,1003.07
2023-05-14T02:44:23.317Z,1003.06
2023-05-14T02:50:08.843Z,1003.04
2023-05-14T02:55:53.558Z,1003.02
2023-05-14T03:01:39.129Z,1002.95
2023-05-14T03:07:26.065Z,1002.97
2023-05-14T03:13:10.979Z,1002.92
2023-05-14T03:18:56.126Z,1002.94
2023-05-14T03:24:41.399Z,1002.99
2023-05-14T03:30:26.764Z,1002.85
2023-05-14T03:36:11.828Z,1002.91
2023-05-14T03:41:56.544Z,1002.91
2023-05-14T03:47:42.782Z,1002.91
2023-05-14T03:53:27.800Z,1002.99
2023-05-14T03:59:12.476Z,1002.94
2023-05-14T04:04:57.463Z,1002.96
2023-05-14T04:10:43.626Z,1002.93
2023-05-14T04:16:28.542Z,1002.93
2023-05-14T04:22:13.583Z,1002.99
2023-05-14T04:27:58.363Z,1003
2023-05-14T04:33:45.269Z,1002.93
2023-05-14T04:39:31.164Z,1002.92
2023-05-14T04:45:16.941Z,1002.84
2023-05-14T04:51:01.988Z,1002.82
2023-05-14T04:56:49.841Z,1002.77
2023-05-14T05:02:34.788Z,1002.74
2023-05-14T05:08:19.677Z,1002.84
2023-05-14T05:14:04.320Z,1002.86
2023-05-14T05:19:49.060Z,1002.8
2023-05-14T05:25:33.609Z,1002.84
2023-05-14T05:31:20.951Z,1002.82
2023-05-14T05:37:06.043Z,1002.88
2023-05-14T05:42:50.870Z,1002.88
2023-05-14T05:48:35.522Z,1002.92
2023-05-14T05:54:21.244Z,1002.84
2023-05-14T06:00:06.665Z,1002.85
2023-05-14T06:05:51.859Z,1002.96
2023-05-14T06:11:36.600Z,1003.06
2023-05-14T06:17:21.316Z,1003.07
2023-05-14T06:23:06.195Z,1003.08
2023-05-14T06:28:50.819Z,1003.12
2023-05-14T06:34:35.538Z,1003.14
2023-05-14T06:40:20.584Z,1003.21
2023-05-14T06:46:05.866Z,1003.14
2023-05-14T06:51:50.569Z,1003.2
2023-05-14T06:57:35.229Z,1003.15
2023-05-14T07:03:23.233Z,1003.13
2023-05-14T07:09:08.088Z,1003.09
2023-05-14T07:14:53.590Z,1003.08
2023-05-14T07:20:38.214Z,1003.12
2023-05-14T07:26:23.078Z,1003.13
2023-05-14T07:32:07.824Z,1003.24
2023-05-14T07:37:52.642Z,1003.31
2023-05-14T07:43:37.320Z,1003.37
2023-05-14T07:49:22.117Z,1003.25
2023-05-14T07:55:08.023Z,1003.27
2023-05-14T08:00:52.748Z,1003.26
2023-05-14T08:06:37.557Z,1003.24
2023-05-14T08:12:22.394Z,1003.24
2023-05-14T08:18:07.256Z,1003.21
2023-05-14T08:23:52.227Z,1003.21
2023-05-14T08:29:37.098Z,1003.22
2023-05-14T08:35:22.048Z,1003.26
2023-05-14T08:41:07.283Z,1003.28
2023-05-14T08:46:52.354Z,1003.2
2023-05-14T08:52:37.264Z,1003.13
2023-05-14T08:58:22.026Z,1003.14
2023-05-14T09:04:07.338Z,1003.05
2023-05-14T09:09:52.593Z,1003.1
2023-05-14T09:15:38.129Z,1003.1
2023-05-14T09:21:23.140Z,1003.15
2023-05-14T09:27:08.383Z,1003.22
2023-05-14T09:32:54.826Z,1003.17
2023-05-14T09:38:39.766Z,1003.1
2023-05-14T09:44:24.604Z,1003.08
2023-05-14T09:50:10.042Z,1003.01
2023-05-14T09:55:54.756Z,1003
2023-05-14T10:01:40.178Z,1002.91
2023-05-14T10:07:30.688Z,1002.88
2023-05-14T10:13:15.922Z,1002.89
2023-05-14T10:19:02.652Z,1002.79
2023-05-14T10:24:47.820Z,1002.77
2023-05-14T10:30:32.996Z,1002.78
2023-05-14T10:36:18.721Z,1002.72
2023-05-14T10:42:03.576Z,1002.68
2023-05-14T10:47:48.540Z,1002.59
2023-05-14T10:53:40.213Z,1002.61
2023-05-14T10:59:26.272Z,1002.59
2023-05-14T11:05:11.978Z,1002.46
2023-05-14T11:10:57.109Z,1002.35
2023-05-14T11:16:41.766Z,1002.36
2023-05-14T11:22:26.786Z,1002.3
2023-05-14T11:28:11.617Z,1002.23
2023-05-14T11:33:57.091Z,1002.2
2023-05-14T11:39:46.747Z,1002.17
2023-05-14T11:45:31.562Z,1002.07
2023-05-14T11:51:16.308Z,1002.04
2023-05-14T11:57:01.697Z,1002.02
2023-05-14T12:02:49.053Z,1002.03
2023-05-14T12:08:34.377Z,1001.99
2023-05-14T12:14:20.485Z,1001.94
2023-05-14T12:20:06.178Z,1001.93
2023-05-14T12:25:57.310Z,1001.87
2023-05-14T12:31:46.335Z,1001.81
2023-05-14T12:37:32.440Z,1001.71
2023-05-14T12:43:17.092Z,1001.67
2023-05-14T12:49:01.926Z,1001.62
2023-05-14T12:54:46.750Z,1001.64
2023-05-14T13:00:31.634Z,1001.61
2023-05-14T13:06:16.490Z,1001.55
2023-05-14T13:12:01.201Z,1001.48
2023-05-14T13:17:46.100Z,1001.49
2023-05-14T13:23:31.049Z,1001.43
2023-05-14T13:29:15.852Z,1001.35
2023-05-14T13:35:00.634Z,1001.32
2023-05-14T13:40:45.519Z,1001.27
2023-05-14T13:46:30.529Z,1001.23
2023-05-14T13:52:15.463Z,1001.17
2023-05-14T13:58:02.294Z,1001.05
2023-05-14T14:03:47.212Z,1001.04
2023-05-14T14:09:31.993Z,1000.96
2023-05-14T14:15:16.878Z,1000.89
2023-05-14T14:21:01.563Z,1000.79
2023-05-14T14:26:46.447Z,1000.72
2023-05-14T14:32:31.125Z,1000.62
2023-05-14T14:38:15.822Z,1000.61
2023-05-14T14:44:00.548Z,1000.49
2023-05-14T14:49:45.198Z,1000.5
2023-05-14T14:55:30.276Z,1000.51
2023-05-14T15:01:15.106Z,1000.38
2023-05-14T15:07:01.024Z,1000.41
2023-05-14T15:12:45.827Z,1000.34
2023-05-14T15:18:30.730Z,1000.31
2023-05-14T15:24:16.107Z,1000.33
2023-05-14T15:30:01.722Z,1000.33
2023-05-14T15:35:46.531Z,1000.3
2023-05-14T15:41:31.362Z,1000.31
2023-05-14T15:47:15.899Z,1000.29
2023-05-14T15:53:01.308Z,1000.26
2023-05-14T15:58:46.273Z,1000.17
2023-05-14T16:04:31.056Z,1000.18
2023-05-14T16:10:15.907Z,1000.19
2023-05-14T16:16:00.791Z,1000.16
2023-05-14T16:21:45.882Z,1000.08
2023-05-14T16:27:30.798Z,1000.11
2023-05-14T16:33:15.640Z,1000.08
2023-05-14T16:39:08.001Z,999.99
2023-05-14T16:44:53.257Z,1000.02
2023-05-14T16:50:37.977Z,1000.12
2023-05-14T16:56:26.146Z,1000.11
2023-05-14T17:02:10.794Z,1000.14
2023-05-14T17:07:55.612Z,1000.14
2023-05-14T17:13:40.318Z,1000.2
2023-05-14T17:19:25.120Z,1000.09
2023-05-14T17:25:10.539Z,1000.11
2023-05-14T17:30:55.459Z,1000.19
2023-05-14T17:36:40.404Z,1000.13
2023-05-14T17:42:25.106Z,1000.14
2023-05-14T17:48:10.167Z,1000.15
2023-05-14T17:53:55.093Z,1000.2
2023-05-14T17:59:39.854Z,1000.26
2023-05-14T18:05:26.563Z,1000.41
2023-05-14T18:11:11.881Z,1000.46
2023-05-14T18:16:56.789Z,1000.43
2023-05-14T18:22:41.854Z,1000.52
2023-05-14T18:28:26.520Z,1000.5
2023-05-14T18:34:11.221Z,1000.51
2023-05-14T18:39:56.107Z,1000.59
2023-05-14T18:45:41.130Z,1000.55
2023-05-14T18:51:26.060Z,1000.62
2023-05-14T18:57:11.929Z,1000.65
2023-05-14T19:02:56.853Z,1000.7
2023-05-14T19:08:41.884Z,1000.77
2023-05-14T19:14:26.568Z,1000.7
2023-05-14T19:20:12.177Z,1000.65
2023-05-14T19:25:57.189Z,1000.69
2023-05-14T19:31:42.381Z,1000.75
2023-05-14T19:37:30.293Z,1000.8
2023-05-14T19:43:15.074Z,1000.88
2023-05-14T19:48:59.959Z,1000.96
2023-05-14T19:54:44.803Z,1001.06
2023-05-14T20:00:29.771Z,1001.1
2023-05-14T20:06:14.668Z,1001.06
2023-05-14T20:11:59.385Z,1001.13
2023-05-14T20:17:44.221Z,1001.15
2023-05-14T20:23:29.067Z,1001.17
2023-05-14T20:29:13.804Z,1001.09
2023-05-14T20:34:58.563Z,1001.1
2023-05-14T20:40:43.268Z,1001.02
2023-05-14T20:46:28.518Z,1001.09
2023-05-14T20:52:13.229Z,1001.02
2023-05-14T20:57:57.783Z,1001.01
2023-05-14T21:03:42.935Z,1000.99
2023-05-14T21:09:29.403Z,1001
2023-05-14T21:15:14.567Z,1001
2023-05-14T21:20:59.223Z,1001.04
2023-05-14T21:26:44.241Z,1000.99
2023-05-14T21:32:28.977Z,1000.95
2023-05-14T21:38:13.704Z,1000.89
2023-05-14T21:43:58.450Z,1000.93
2023-05-14T21:49:43.357Z,1000.85
2023-05-14T21:55:29.160Z,1000.82
2023-05-14T22:01:13.987Z,1000.76
2023-05-14T22:06:59.041Z,1000.79
2023-05-14T22:12:44.567Z,1000.79
2023-05-14T22:18:29.385Z,1000.77
2023-05-14T22:24:14.079Z,1000.74
2023-05-14T22:29:59.292Z,1000.68
2023-05-14T22:35:44.063Z,1000.72
2023-05-14T22:41:28.650Z,1000.66
2023-05-14T22:47:13.643Z,1000.58
2023-05-14T22:52:58.411Z,1000.55
2023-05-14T22:58:43.086Z,1000.52
2023-05-14T23:04:27.891Z,1000.45
2023-05-14T23:10:13.066Z,1000.38
2023-05-14T23:15:57.752Z,1000.26
2023-05-14T23:21:43.267Z,1000.23
2023-05-14T23:27:28.020Z,1000.25
2023-05-14T23:33:12.865Z,1000.25
2023-05-14T23:38:57.793Z,1000.17
2023-05-14T23:44:42.476Z,1000.14
2023-05-14T23:50:27.196Z,1000.17
2023-05-14T23:56:12.610Z,1000.11
